• Join FlightAware (Why Join?)
  • Login
  • US Flag 
02:31PM EDT


 

Airport Tracker/Info


-or-


 

Live Flight TrackerFlight Track Log ✈ N717AN ✈ 03-May-2014 ✈ SBGR / GRU - KJFK

Flight Track Log - Related Links

Times and Time Zones

All times are in EDT time to prevent confusion due to time zone crossing. See the N717AN flight status page for this flight to view local times or setup timezone preferences in your user account.

Time Position Orientation Groundspeed Altitude Reporting Facility
EDT Latitude Longitude Course Direction KTS MPH feet Rate Location/Type
08:30PM -23.3356 -46.3675 303° West 287 330 6,900  Level FlightAware ADS-B (SDAM)
08:30PM -23.3321 -46.3750 297° West 290 334 7,200 3,000 Climbing FlightAware ADS-B (SDAM)
08:31PM -23.3238 -46.3936 298° West 286 329 7,900 3,000 Climbing FlightAware ADS-B (SDAM)
08:31PM -23.3199 -46.4005 303° West 283 326 8,200 2,400 Climbing FlightAware ADS-B (SDAM)
08:31PM -23.3115 -46.4116 312° West 284 327 8,500 1,500 Climbing FlightAware ADS-B (SDAM)
08:31PM -23.3066 -46.4168 317° Northwest 284 327 8,600 1,200 Climbing FlightAware ADS-B (SDAM)
08:31PM -23.2904 -46.4293 329° Northwest 288 331 8,900 660 Climbing FlightAware ADS-B (SDAM)
08:32PM -23.2673 -46.4413 331° Northwest 289 333 9,000 120 Climbing FlightAware ADS-B (SDAM)
08:32PM -23.2418 -46.4521 331° Northwest 289 333 9,000 480 Level FlightAware ADS-B (SDAM)
08:32PM -23.2222 -46.4602 340° North 296 341 9,300 1,860 Climbing FlightAware ADS-B (SDAM)
08:32PM -23.2029 -46.4682 339° North 297 342 9,900 1,680 Climbing FlightAware ADS-B (SDAM)
08:33PM -23.1622 -46.4848 340° North 323 372 10,600 1,080 Climbing FlightAware ADS-B (SDAM)
08:33PM -23.1180 -46.5025 340° North 355 409 11,000 960 Climbing FlightAware ADS-B (SDAM)
08:34PM -23.0695 -46.5222 339° North 377 434 11,600 1,560 Climbing FlightAware ADS-B (SDAM)
08:34PM -23.0216 -46.5476 330° Northwest 388 447 12,600 1,920 Climbing FlightAware ADS-B (SDAM)
08:35PM -22.9758 -46.5793 327° Northwest 398 458 13,500 1,860 Climbing FlightAware ADS-B (SDAM)
08:35PM -22.9291 -46.6121 327° Northwest 403 464 14,500 2,100 Climbing FlightAware ADS-B (SDAM)
08:36PM -22.8815 -46.6455 328° Northwest 408 470 15,600 2,040 Climbing FlightAware ADS-B (SDAM)
08:36PM -22.8327 -46.6796 328° Northwest 410 472 16,600 2,100 Climbing FlightAware ADS-B (SDAM)
08:37PM -22.7848 -46.7128 328° Northwest 411 473 17,700 1,980 Climbing FlightAware ADS-B (SDAM)
08:37PM -22.7367 -46.7460 328° Northwest 418 481 18,600 1,800 Climbing FlightAware ADS-B (SDAM)
08:38PM -22.6875 -46.7799 328° Northwest 422 486 19,500 1,800 Climbing FlightAware ADS-B (SDAM)
08:38PM -22.6377 -46.8144 328° Northwest 426 490 20,400 1,620 Climbing FlightAware ADS-B (SDAM)
08:39PM -22.5867 -46.8498 328° Northwest 432 497 21,200 1,500 Climbing FlightAware ADS-B (SDAM)
08:39PM -22.5366 -46.8844 328° Northwest 439 505 21,900 1,320 Climbing FlightAware ADS-B (SDAM)
08:40PM -22.4838 -46.9208 328° Northwest 449 517 22,500 1,200 Climbing FlightAware ADS-B (SDAM)
08:40PM -22.4313 -46.9571 328° Northwest 458 527 23,100 1,260 Climbing FlightAware ADS-B (SDAM)
08:41PM -22.3764 -46.9948 328° Northwest 463 533 23,800 1,320 Climbing FlightAware ADS-B (SDAM)
08:41PM -22.3220 -47.0323 328° Northwest 467 537 24,500 1,500 Climbing FlightAware ADS-B (SDAM)
08:42PM -22.2672 -47.0699 328° Northwest 470 541 25,300 1,500 Climbing FlightAware ADS-B (SDAM)
08:42PM -22.2123 -47.1075 328° Northwest 473 544 26,000 2,100 Climbing FlightAware ADS-B (SDAM)
08:43PM -22.1534 -47.1368 343° North 458 527 27,400 2,220 Climbing FlightAware ADS-B (SDAM)
08:43PM -22.0902 -47.1514 351° North 456 525 28,300 1,500 Climbing FlightAware ADS-B (SDAM)
08:44PM -22.0274 -47.1609 353° North 460 529 28,900 1,200 Climbing FlightAware ADS-B (SDAM)
08:44PM -21.9646 -47.1699 353° North 462 532 29,500 1,080 Climbing FlightAware ADS-B (SDAM)
08:45PM -21.8994 -47.1797 352° North 467 537 30,000 420 Climbing FlightAware ADS-B (SDAM)
08:46PM -21.8131 -47.1930 352° North 468 539 30,000  Level FlightAware ADS-B (SDAM)
08:46PM -21.7488 -47.2031 352° North 468 539 30,000  Level FlightAware ADS-B (SDAM)
08:47PM -21.6836 -47.2132 352° North 469 540 30,000  Level FlightAware ADS-B (SDAM)
08:47PM -21.6199 -47.2238 352° North 468 539 30,000  Level FlightAware ADS-B (SDAM)
08:48PM -21.5545 -47.2345 352° North 468 539 30,000  Level FlightAware ADS-B (SDAM)
08:48PM -21.4912 -47.2449 352° North 473 544 30,000  Level FlightAware ADS-B (SDAM)
08:49PM -21.4256 -47.2555 352° North 489 563 30,000  Level FlightAware ADS-B (SDAM)
08:49PM -21.3568 -47.2666 352° North 502 578 30,000  Level FlightAware ADS-B (SDAM)
08:50PM -21.2865 -47.2777 353° North 503 579 30,000  Level FlightAware ADS-B (SDAM)
08:50PM -21.2168 -47.2876 353° North 505 581 30,000  Level FlightAware ADS-B (SDAM)
08:51PM -21.1467 -47.2975 353° North 507 583 30,000  Level FlightAware ADS-B (SDAM)
08:51PM -21.0762 -47.3077 353° North 507 583 30,000  Level FlightAware ADS-B (SDAM)
08:52PM -21.0064 -47.3179 353° North 508 585 30,000  Level FlightAware ADS-B (SDAM)
08:52PM -20.9362 -47.3281 353° North 509 586 30,000  Level FlightAware ADS-B (SDAM)
08:53PM -20.8663 -47.3386 351° North 508 585 30,000  Level FlightAware ADS-B (SDAM)
08:53PM -20.7645 -47.3682 346° North 507 583 30,000  Level FlightAware ADS-B (SDAM)
08:54PM -20.6408 -47.3919 352° North 509 586 30,000  Level FlightAware ADS-B (SDAM)
08:55PM -20.5674 -47.4033 352° North 509 586 30,000  Level FlightAware ADS-B (SDAM)
08:55PM -20.4982 -47.4135 353° North 508 585 30,000  Level FlightAware ADS-B (SDAM)
08:56PM -20.4272 -47.4240 353° North 504 580 30,000  Level FlightAware ADS-B (SDAM)
08:56PM -20.3577 -47.4343 352° North 501 577 30,000  Level FlightAware ADS-B (SDAM)
08:57PM -20.2918 -47.4442 352° North 495 570 30,000  Level FlightAware ADS-B (SDAM)
08:57PM -20.2208 -47.4548 353° North 490 564 30,000  Level FlightAware ADS-B (SDAM)
08:58PM -20.1546 -47.4648 352° North 489 563 30,000  Level FlightAware ADS-B (SDAM)
08:58PM -20.0865 -47.4750 352° North 487 560 30,000  Level FlightAware ADS-B (SDAM)
08:59PM -20.0202 -47.4846 354° North 487 560 30,000  Level FlightAware ADS-B (SDAM)
08:59PM -19.9734 -47.4853 North 492 566 30,000  Level FlightAware ADS-B (SDAM)
09:00PM -19.8969 -47.4840 354° North 486 559 30,000  Level FlightAware ADS-B (SDAM)
09:00PM -19.7942 -47.5001 352° North 486 559 30,000  Level FlightAware ADS-B (SDAM)
09:01PM -19.7271 -47.5110 352° North 488 562 30,000  Level FlightAware ADS-B (SDAM)
09:01PM -19.6606 -47.5212 352° North 487 560 30,000  Level FlightAware ADS-B (SDAM)
09:02PM -19.6115 -47.5284 353° North 485 558 30,000  Level FlightAware ADS-B (SDAM)
09:04PM -19.4071 -47.6147 338° Northwest  Level Estimated
09:05PM -19.2857 -47.6660 338° Northwest  Level Estimated
09:06PM -19.1642 -47.7171 338° Northwest  Level Estimated
09:07PM -19.0427 -47.7682 338° Northwest  Level Estimated
09:08PM -18.9212 -47.8191 338° Northwest  Level Estimated
09:09PM -18.7997 -47.8701 338° Northwest  Level Estimated
09:10PM -18.6782 -47.9209 338° Northwest  Level Estimated
09:11PM -18.5567 -47.9717 338° Northwest  Level Estimated
09:12PM -18.4351 -48.0224 338° Northwest  Level Estimated
09:13PM -18.3135 -48.0730 338° Northwest  Level Estimated
09:14PM -18.1920 -48.1236 338° Northwest  Level Estimated
09:15PM -18.0704 -48.1740 338° Northwest  Level Estimated
09:16PM -17.9488 -48.2244 338° Northwest  Level Estimated
09:17PM -17.8271 -48.2748 338° Northwest  Level Estimated
09:18PM -17.7055 -48.3251 339° North  Level Estimated
09:19PM -17.5839 -48.3753 339° North  Level Estimated
09:20PM -17.4622 -48.4254 339° North  Level Estimated
09:21PM -17.3405 -48.4755 339° North  Level Estimated
09:22PM -17.2189 -48.5255 339° North  Level Estimated
09:23PM -17.0972 -48.5754 339° North  Level Estimated
09:24PM -16.9755 -48.6253 339° North  Level Estimated
09:25PM -16.8538 -48.6751 339° North  Level Estimated
09:26PM -16.7320 -48.7249 339° North  Level Estimated
09:27PM -16.6103 -48.7746 339° North  Level Estimated
09:28PM -16.4885 -48.8242 339° North  Level Estimated
09:29PM -16.3649 -48.8684 341° North  Level FlightAware Approximate
09:30PM -16.2412 -48.9126 341° North  Level FlightAware Approximate
09:31PM -16.1176 -48.9567 341° North  Level FlightAware Approximate
09:32PM -15.9939 -49.0008 341° North  Level FlightAware Approximate
09:33PM -15.8703 -49.0448 341° North  Level FlightAware Approximate
09:34PM -15.7466 -49.0887 341° North  Level FlightAware Approximate
09:35PM -15.6229 -49.1326 341° North  Level FlightAware Approximate
09:36PM -15.4992 -49.1765 341° North  Level FlightAware Approximate
09:37PM -15.3755 -49.2203 341° North  Level FlightAware Approximate
09:38PM -15.2518 -49.2640 341° North  Level FlightAware Approximate
09:39PM -15.1280 -49.3077 341° North  Level FlightAware Approximate
09:40PM -15.0043 -49.3513 341° North  Level FlightAware Approximate
09:41PM -14.8806 -49.3950 341° North  Level FlightAware Approximate
09:42PM -14.7568 -49.4385 341° North  Level FlightAware Approximate
09:43PM -14.6330 -49.4820 341° North  Level FlightAware Approximate
09:44PM -14.5093 -49.5254 341° North  Level FlightAware Approximate
09:45PM -14.3855 -49.5688 341° North  Level FlightAware Approximate
09:46PM -14.2617 -49.6122 341° North  Level FlightAware Approximate
09:47PM -14.1379 -49.6555 341° North  Level FlightAware Approximate
09:48PM -14.0141 -49.6987 341° North  Level FlightAware Approximate
09:49PM -13.8903 -49.7419 341° North  Level FlightAware Approximate
09:50PM -13.7665 -49.7851 341° North  Level FlightAware Approximate
09:51PM -13.6427 -49.8282 341° North  Level FlightAware Approximate
09:52PM -13.5189 -49.8713 341° North  Level FlightAware Approximate
09:53PM -13.3950 -49.9143 341° North  Level FlightAware Approximate
09:54PM -13.2712 -49.9573 341° North  Level FlightAware Approximate
09:55PM -13.1473 -50.0002 341° North  Level FlightAware Approximate
09:56PM -13.0235 -50.0431 341° North  Level FlightAware Approximate
09:57PM -12.8996 -50.0859 341° North  Level FlightAware Approximate
09:58PM -12.7758 -50.1287 341° North  Level FlightAware Approximate
09:59PM -12.6519 -50.1715 341° North  Level FlightAware Approximate
10:00PM -12.5280 -50.2142 341° North  Level FlightAware Approximate
10:01PM -12.4041 -50.2569 341° North  Level FlightAware Approximate
10:02PM -12.2802 -50.2996 341° North  Level FlightAware Approximate
10:03PM -12.1563 -50.3422 341° North  Level FlightAware Approximate
10:04PM -12.0324 -50.3847 341° North  Level FlightAware Approximate
10:05PM -11.9085 -50.4272 341° North  Level FlightAware Approximate
10:06PM -11.7845 -50.4697 341° North  Level FlightAware Approximate
10:07PM -11.6606 -50.5122 341° North  Level FlightAware Approximate
10:08PM -11.5367 -50.5546 341° North  Level FlightAware Approximate
10:09PM -11.4127 -50.5970 341° North  Level FlightAware Approximate
10:10PM -11.2888 -50.6393 341° North  Level FlightAware Approximate
10:11PM -11.1648 -50.6816 341° North  Level FlightAware Approximate
10:12PM -11.0409 -50.7239 341° North  Level FlightAware Approximate
10:13PM -10.9169 -50.7661 342° North  Level FlightAware Approximate
10:14PM -10.7929 -50.8083 342° North  Level FlightAware Approximate
10:15PM -10.6689 -50.8504 342° North  Level FlightAware Approximate
10:16PM -10.5450 -50.8925 342° North  Level FlightAware Approximate
10:17PM -10.4210 -50.9346 342° North  Level FlightAware Approximate
10:18PM -10.2970 -50.9767 342° North  Level FlightAware Approximate
10:19PM -10.1730 -51.0187 342° North  Level FlightAware Approximate
10:20PM -10.0490 -51.0607 342° North  Level FlightAware Approximate
10:21PM -9.9250 -51.1026 342° North  Level FlightAware Approximate
10:22PM -9.8009 -51.1446 342° North  Level FlightAware Approximate
10:23PM -9.6769 -51.1865 342° North  Level FlightAware Approximate
10:24PM -9.5529 -51.2283 342° North  Level FlightAware Approximate
10:25PM -9.4289 -51.2702 342° North  Level FlightAware Approximate
10:26PM -9.3048 -51.3120 342° North  Level FlightAware Approximate
10:27PM -9.1808 -51.3537 342° North  Level FlightAware Approximate
10:28PM -9.0567 -51.3955 342° North  Level FlightAware Approximate
10:29PM -8.9327 -51.4372 342° North  Level FlightAware Approximate
10:30PM -8.8086 -51.4789 342° North  Level FlightAware Approximate
10:31PM -8.6846 -51.5205 342° North  Level FlightAware Approximate
10:32PM -8.5605 -51.5622 342° North  Level FlightAware Approximate
10:33PM -8.4364 -51.6038 342° North  Level FlightAware Approximate
10:34PM -8.3124 -51.6453 342° North  Level FlightAware Approximate
10:35PM -8.1883 -51.6869 342° North  Level FlightAware Approximate
10:36PM -8.0642 -51.7284 342° North  Level FlightAware Approximate
10:37PM -7.9401 -51.7699 342° North  Level FlightAware Approximate
10:38PM -7.8160 -51.8114 342° North  Level FlightAware Approximate
10:39PM -7.6919 -51.8528 342° North  Level FlightAware Approximate
10:40PM -7.5678 -51.8942 342° North  Level FlightAware Approximate
10:41PM -7.4437 -51.9356 342° North  Level FlightAware Approximate
10:42PM -7.3196 -51.9770 342° North  Level FlightAware Approximate
10:43PM -7.1955 -52.0184 342° North  Level FlightAware Approximate
10:44PM -7.0714 -52.0597 342° North  Level FlightAware Approximate
10:45PM -6.9473 -52.1010 342° North  Level FlightAware Approximate
10:46PM -6.8232 -52.1423 342° North  Level FlightAware Approximate
10:47PM -6.6990 -52.1836 342° North  Level FlightAware Approximate
10:48PM -6.5749 -52.2248 342° North  Level FlightAware Approximate
10:49PM -6.4508 -52.2660 342° North  Level FlightAware Approximate
10:50PM -6.3267 -52.3073 342° North  Level FlightAware Approximate
10:51PM -6.2025 -52.3484 342° North  Level FlightAware Approximate
10:52PM -6.0784 -52.3896 342° North  Level FlightAware Approximate
10:53PM -5.9542 -52.4307 342° North  Level FlightAware Approximate
10:54PM -5.8301 -52.4719 342° North  Level FlightAware Approximate
10:55PM -5.7059 -52.5130 342° North  Level FlightAware Approximate
10:56PM -5.5818 -52.5541 342° North  Level FlightAware Approximate
10:57PM -5.4576 -52.5951 342° North  Level FlightAware Approximate
10:58PM -5.3335 -52.6362 342° North  Level FlightAware Approximate
10:59PM -5.2093 -52.6772 342° North  Level FlightAware Approximate
11:00PM -5.0851 -52.7183 342° North  Level FlightAware Approximate
11:01PM -4.9610 -52.7593 342° North  Level FlightAware Approximate
11:02PM -4.8368 -52.8003 342° North  Level FlightAware Approximate
11:03PM -4.7126 -52.8412 342° North  Level FlightAware Approximate
11:04PM -4.5885 -52.8822 342° North  Level FlightAware Approximate
11:05PM -4.4643 -52.9231 342° North  Level FlightAware Approximate
11:06PM -4.3401 -52.9641 342° North  Level FlightAware Approximate
11:07PM -4.2159 -53.0050 342° North  Level FlightAware Approximate
11:08PM -4.0918 -53.0459 342° North  Level FlightAware Approximate
11:09PM -3.9676 -53.0868 342° North  Level FlightAware Approximate
11:10PM -3.8434 -53.1277 342° North  Level FlightAware Approximate
11:11PM -3.7192 -53.1686 342° North  Level FlightAware Approximate
11:12PM -3.5950 -53.2094 342° North  Level FlightAware Approximate
11:13PM -3.4708 -53.2503 342° North  Level FlightAware Approximate
11:14PM -3.3466 -53.2911 342° North  Level FlightAware Approximate
11:15PM -3.2224 -53.3319 342° North  Level FlightAware Approximate
11:16PM -3.0982 -53.3728 342° North  Level FlightAware Approximate
11:17PM -2.9740 -53.4136 342° North  Level FlightAware Approximate
11:18PM -2.8498 -53.4544 342° North  Level FlightAware Approximate
11:19PM -2.7256 -53.4952 342° North  Level FlightAware Approximate
11:20PM -2.6014 -53.5359 342° North  Level FlightAware Approximate
11:21PM -2.4772 -53.5767 342° North  Level FlightAware Approximate
11:22PM -2.3530 -53.6175 342° North  Level FlightAware Approximate
11:23PM -2.2288 -53.6582 342° North  Level FlightAware Approximate
11:24PM -2.1046 -53.6990 342° North  Level FlightAware Approximate
11:25PM -1.9804 -53.7397 342° North  Level FlightAware Approximate
11:26PM -1.8562 -53.7805 342° North  Level FlightAware Approximate
11:27PM -1.7320 -53.8212 342° North  Level FlightAware Approximate
11:28PM -1.6077 -53.8619 342° North  Level FlightAware Approximate
11:29PM -1.4835 -53.9027 342° North  Level FlightAware Approximate
11:30PM -1.3593 -53.9434 342° North  Level FlightAware Approximate
11:31PM -1.2351 -53.9841 342° North  Level FlightAware Approximate
11:32PM -1.1109 -54.0248 342° North  Level FlightAware Approximate
11:33PM -0.9867 -54.0655 342° North  Level FlightAware Approximate
11:34PM -0.8625 -54.1062 342° North  Level FlightAware Approximate
11:35PM -0.7382 -54.1469 342° North  Level FlightAware Approximate
11:36PM -0.6140 -54.1876 342° North  Level FlightAware Approximate
11:37PM -0.4898 -54.2283 342° North  Level FlightAware Approximate
11:38PM -0.3656 -54.2690 342° North  Level FlightAware Approximate
11:39PM -0.2414 -54.3097 342° North  Level FlightAware Approximate
11:40PM -0.1172 -54.3504 342° North  Level FlightAware Approximate
11:41PM 0.0071 -54.3911 342° North  Level FlightAware Approximate
11:42PM 0.1313 -54.4318 342° North  Level FlightAware Approximate
11:43PM 0.2555 -54.4725 342° North  Level FlightAware Approximate
11:44PM 0.3797 -54.5132 342° North  Level FlightAware Approximate
11:45PM 0.5039 -54.5539 342° North  Level FlightAware Approximate
11:46PM 0.6282 -54.5946 342° North  Level FlightAware Approximate
11:47PM 0.7524 -54.6353 342° North  Level FlightAware Approximate
11:48PM 0.8766 -54.6760 342° North  Level FlightAware Approximate
11:49PM 1.0008 -54.7167 342° North  Level FlightAware Approximate
11:50PM 1.1250 -54.7574 342° North  Level FlightAware Approximate
11:51PM 1.2492 -54.7981 342° North  Level FlightAware Approximate
11:52PM 1.3735 -54.8388 342° North  Level FlightAware Approximate
11:53PM 1.4977 -54.8795 342° North  Level FlightAware Approximate
11:54PM 1.6219 -54.9203 342° North  Level FlightAware Approximate
11:55PM 1.7461 -54.9610 342° North  Level FlightAware Approximate
11:56PM 1.8703 -55.0017 342° North  Level FlightAware Approximate
11:57PM 1.9945 -55.0425 342° North  Level FlightAware Approximate
11:58PM 2.1187 -55.0832 342° North  Level FlightAware Approximate
11:59PM 2.2429 -55.1240 342° North  Level FlightAware Approximate
12:00AM 2.3671 -55.1647 342° North  Level FlightAware Approximate
12:01AM 2.4913 -55.2055 342° North  Level FlightAware Approximate
12:02AM 2.6156 -55.2463 342° North  Level FlightAware Approximate
12:03AM 2.7397 -55.2870 342° North  Level FlightAware Approximate
12:04AM 2.8640 -55.3278 342° North  Level FlightAware Approximate
12:05AM 2.9881 -55.3686 342° North  Level FlightAware Approximate
12:06AM 3.1123 -55.4094 342° North  Level FlightAware Approximate
12:07AM 3.2366 -55.4503 342° North  Level FlightAware Approximate
12:08AM 3.3607 -55.4911 342° North  Level FlightAware Approximate
12:09AM 3.4849 -55.5319 342° North  Level FlightAware Approximate
12:10AM 3.6091 -55.5728 342° North  Level FlightAware Approximate
12:11AM 3.7333 -55.6136 342° North  Level FlightAware Approximate
12:12AM 3.8575 -55.6545 342° North  Level FlightAware Approximate
12:13AM 3.9817 -55.6954 342° North  Level FlightAware Approximate
12:14AM 4.1059 -55.7363 342° North  Level FlightAware Approximate
12:15AM 4.2301 -55.7772 342° North  Level FlightAware Approximate
12:16AM 4.3542 -55.8181 342° North  Level FlightAware Approximate
12:17AM 4.4784 -55.8591 342° North  Level FlightAware Approximate
12:18AM 4.6026 -55.9000 342° North  Level FlightAware Approximate
12:19AM 4.7268 -55.9410 342° North  Level FlightAware Approximate
12:20AM 4.8509 -55.9820 342° North  Level FlightAware Approximate
12:21AM 4.9751 -56.0229 342° North  Level FlightAware Approximate
12:22AM 5.0993 -56.0640 342° North  Level FlightAware Approximate
12:23AM 5.2234 -56.1050 342° North  Level FlightAware Approximate
12:24AM 5.3476 -56.1460 342° North  Level FlightAware Approximate
12:25AM 5.4718 -56.1871 342° North  Level FlightAware Approximate
12:26AM 5.5959 -56.2282 342° North  Level FlightAware Approximate
12:27AM 5.7201 -56.2693 342° North  Level FlightAware Approximate
12:28AM 5.8442 -56.3104 342° North  Level FlightAware Approximate
12:29AM 5.9684 -56.3515 342° North  Level FlightAware Approximate
12:30AM 6.0925 -56.3927 342° North  Level FlightAware Approximate
12:31AM 6.2166 -56.4338 342° North  Level FlightAware Approximate
12:32AM 6.3408 -56.4750 342° North  Level FlightAware Approximate
12:33AM 6.4649 -56.5162 342° North  Level FlightAware Approximate
12:34AM 6.5908 -56.5578 342° North  Level FlightAware Approximate
12:35AM 6.7153 -56.5979 342° North  Level FlightAware Approximate
12:36AM 6.8398 -56.6380 342° North  Level FlightAware Approximate
12:37AM 6.9643 -56.6782 342° North  Level FlightAware Approximate
12:38AM 7.0888 -56.7183 342° North  Level FlightAware Approximate
12:39AM 7.2133 -56.7585 342° North  Level FlightAware Approximate
12:40AM 7.3378 -56.7987 342° North  Level FlightAware Approximate
12:41AM 7.4623 -56.8390 342° North  Level FlightAware Approximate
12:42AM 7.5867 -56.8792 342° North  Level FlightAware Approximate
12:43AM 7.7112 -56.9195 342° North  Level FlightAware Approximate
12:43AM 8.9914 -58.5353 339° North 484 557 34,000  Level FlightAware ADS-B (TTPP / POS)
12:44AM 9.0331 -58.5515 339° North 484 557 34,000  Level FlightAware ADS-B (TTPP / POS)
12:58AM 10.8707 -59.2340 340° North 481 554 34,000  Level FlightAware ADS-B
01:01AM 11.1791 -59.3487 340° North 477 549 34,000  Level FlightAware ADS-B
01:01AM 11.2178 -59.3631 340° North 476 548 34,000  Level FlightAware ADS-B
01:02AM 11.3537 -59.4136 340° North 474 545 34,000  Level FlightAware ADS-B
01:04AM 11.6148 -59.5110 340° North 474 545 34,000  Level FlightAware ADS-B
01:04AM 11.6291 -59.5164 340° North 477 549 34,000  Level FlightAware ADS-B
01:06AM 11.7986 -59.5797 340° North 479 551 34,000  Level FlightAware ADS-B
01:06AM 11.8337 -59.5928 340° North 480 552 34,000  Level FlightAware ADS-B
01:06AM 11.9017 -59.6182 340° North 480 552 34,000  Level FlightAware ADS-B
01:07AM 11.9616 -59.6407 340° North 480 552 34,000  Level FlightAware ADS-B
01:08AM 12.0445 -59.6717 340° North 480 552 34,000  Level FlightAware ADS-B
01:08AM 12.1125 -59.6973 340° North 481 554 34,000  Level FlightAware ADS-B
01:09AM 12.1726 -59.7197 340° North 481 554 34,000  Level FlightAware ADS-B
01:09AM 12.2267 -59.7400 340° North 481 554 34,000  Level FlightAware ADS-B
01:10AM 12.2952 -59.7657 340° North 482 555 34,000  Level FlightAware ADS-B
01:10AM 12.3559 -59.7885 340° North 482 555 34,000  Level FlightAware ADS-B
01:11AM 12.4194 -59.8124 340° North 479 551 34,000  Level FlightAware ADS-B
01:11AM 12.4857 -59.8373 340° North 479 551 34,000  Level FlightAware ADS-B
01:12AM 12.5484 -59.8609 340° North 479 551 34,000  Level FlightAware ADS-B
01:12AM 12.6156 -59.8861 340° North 478 550 34,000  Level FlightAware ADS-B
01:13AM 12.6730 -59.9077 340° North 479 551 34,000  Level FlightAware ADS-B
01:13AM 12.7392 -59.9327 340° North 479 551 34,000  Level FlightAware ADS-B
01:14AM 12.8034 -59.9569 340° North 479 551 34,000  Level FlightAware ADS-B
01:14AM 12.8628 -59.9792 340° North 480 552 34,000  Level FlightAware ADS-B
01:15AM 12.9286 -60.0041 340° North 482 555 34,000  Level FlightAware ADS-B
01:15AM 12.9861 -60.0258 340° North 483 556 34,000  Level FlightAware ADS-B
01:16AM 13.0475 -60.0490 340° North 483 556 34,000  Level FlightAware ADS-B
01:16AM 13.1142 -60.0742 340° North 483 556 34,000  Level FlightAware ADS-B
01:17AM 13.1758 -60.0975 340° North 482 555 34,000  Level FlightAware ADS-B
01:17AM 13.2377 -60.1209 340° North 481 554 34,000  Level FlightAware ADS-B
01:18AM 13.3019 -60.1452 340° North 482 555 34,000  Level FlightAware ADS-B
01:18AM 13.3652 -60.1692 340° North 481 554 34,000  Level FlightAware ADS-B
01:19AM 13.4216 -60.1905 340° North 480 552 34,000  Level FlightAware ADS-B
01:19AM 13.4903 -60.2166 340° North 479 551 34,000  Level FlightAware ADS-B
01:20AM 13.5493 -60.2389 340° North 478 550 34,000  Level FlightAware ADS-B
01:20AM 13.6132 -60.2632 340° North 476 548 34,000  Level FlightAware ADS-B
01:20AM 13.6608 -60.2813 340° North 476 548 34,000  Level FlightAware ADS-B
01:21AM 13.7390 -60.3109 340° North 475 547 34,000  Level FlightAware ADS-B
01:22AM 13.7990 -60.3338 340° North 474 545 34,000  Level FlightAware ADS-B
01:22AM 13.8634 -60.3583 340° North 476 548 34,000  Level FlightAware ADS-B
01:23AM 13.9222 -60.3808 340° North 477 549 34,000  Level FlightAware ADS-B
01:23AM 13.9858 -60.4049 340° North 477 549 34,000  Level FlightAware ADS-B
01:24AM 14.0375 -60.4246 340° North 477 549 34,000  Level FlightAware ADS-B
01:24AM 14.1060 -60.4507 340° North 477 549 34,000  Level FlightAware ADS-B
01:25AM 14.1764 -60.4776 340° North 477 549 34,000  Level FlightAware ADS-B
01:25AM 14.2343 -60.4997 340° North 478 550 34,000  Level FlightAware ADS-B
01:26AM 14.2942 -60.5226 340° North 478 550 34,000  Level FlightAware ADS-B
01:26AM 14.3599 -60.5476 340° North 477 549 34,000  Level FlightAware ADS-B
01:27AM 14.4237 -60.5721 340° North 478 550 34,000  Level FlightAware ADS-B
01:27AM 14.4851 -60.5956 340° North 478 550 34,000  Level FlightAware ADS-B
01:28AM 14.5485 -60.6198 340° North 478 550 34,000  Level FlightAware ADS-B
01:28AM 14.6024 -60.6405 340° North 478 550 34,000  Level FlightAware ADS-B
01:29AM 14.6634 -60.6639 340° North 478 550 34,000  Level FlightAware ADS-B
01:29AM 14.7336 -60.6908 340° North 478 550 34,000  Level FlightAware ADS-B
01:30AM 14.7971 -60.7152 340° North 478 550 34,000  Level FlightAware ADS-B
01:30AM 14.8458 -60.7339 340° North 477 549 34,000  Level FlightAware ADS-B
01:31AM 14.9126 -60.7595 340° North 476 548 34,000  Level FlightAware ADS-B
01:31AM 14.9777 -60.7846 340° North 476 548 34,000  Level FlightAware ADS-B
01:32AM 15.0373 -60.8075 340° North 475 547 34,000  Level FlightAware ADS-B
01:32AM 15.1032 -60.8329 340° North 474 545 34,000  Level FlightAware ADS-B
01:32AM 15.1127 -60.8366 340° North 474 545 34,000  Level FlightAware ADS-B
01:42AM 16.2657 -61.2832 340° North 468 539 34,000  Level FlightAware ADS-B (TNCM / SXM)
01:42AM 16.3264 -61.3070 340° North 468 539 34,000  Level FlightAware ADS-B (TNCM / SXM)
01:43AM 16.3909 -61.3321 340° North 468 539 34,000  Level FlightAware ADS-B (TNCM / SXM)
01:43AM 16.4517 -61.3558 340° North 468 539 34,000  Level FlightAware ADS-B (TNCM / SXM)
01:44AM 16.5105 -61.3788 340° North 469 540 34,000  Level FlightAware ADS-B (TNCM / SXM)
01:44AM 16.5728 -61.4032 340° North 469 540 34,000  Level FlightAware ADS-B (TNCM / SXM)
01:44AM 16.6180 -61.4209 340° North 470 541 34,000  Level FlightAware ADS-B (TNCM / SXM)
01:55AM 17.9208 -61.9347 340° North 472 543 34,000  Level FlightAware ADS-B (TNCM / SXM)
01:56AM 17.9888 -61.9600 344° North 471 542 34,000  Level FlightAware ADS-B (TNCM / SXM)
01:57AM 18.1167 -61.9833 350° North 650 748 34,000  Level San Juan Center
01:57AM 18.1167 -61.9887 350° North 468 539 34,000  Level FlightAware ADS-B (TNCM / SXM)
01:57AM 18.1829 -62.0010 350° North 467 537 34,000  Level FlightAware ADS-B (TNCM / SXM)
01:57AM 18.2326 -62.0104 350° North 466 536 34,000  Level FlightAware ADS-B (TNCM / SXM)
01:58AM 18.2333 -62.0000 352° North 500 575 34,000  Level San Juan Center
01:58AM 18.2861 -62.0206 350° North 465 535 34,000  Level FlightAware ADS-B (TNCM / SXM)
01:58AM 18.3078 -62.0247 350° North 465 535 34,000  Level FlightAware ADS-B (TNCM / SXM)
01:59AM 18.3333 -62.0167 351° North 480 552 34,000  Level San Juan Center
02:00AM 18.4833 -62.0500 348° North 500 575 34,000  Level San Juan Center
02:01AM 18.6139 -62.0828 350° North  Level FlightAware Approximate
02:01AM 18.6333 -62.0833 348° North 450 518 34,000  Level San Juan Center
02:02AM 18.7423 -62.1072 350° North  Level FlightAware Approximate
02:03AM 18.9000 -62.1333 350° North 480 552 34,000  Level San Juan Center
02:06AM 19.2833 -62.2000 350° North 470 541 34,000  Level San Juan Center
02:07AM 19.3833 -62.2167 351° North 490 564 34,000  Level San Juan Center
02:08AM 19.5333 -62.2500 348° North 470 541 34,000  Level San Juan Center
02:09AM 19.6833 -62.2833 348° North 600 690 34,000  Level San Juan Center
02:10AM 19.8000 -62.3167 345° North 460 529 34,000  Level San Juan Center
02:11AM 19.9167 -62.3333 352° North 470 541 34,000  Level San Juan Center
02:12AM 20.0500 -62.3667 347° North 460 529 34,000  Level San Juan Center
02:13AM 20.1833 -62.3833 353° North 470 541 34,000  Level San Juan Center
02:14AM 20.3333 -62.4167 348° North 440 506 34,000  Level San Juan Center
02:15AM 20.4833 -62.4500 348° North 460 529 34,000  Level San Juan Center
02:16AM 20.5333 -62.4500 349° North 461 531 34,000  Level New York Oceanic (ODAPS)
02:17AM 20.7667 -62.5000 349° North 400 460 34,000  Level San Juan Center
02:18AM 20.8000 -62.5167 350° North 460 529 34,000  Level New York Oceanic (ODAPS)
02:22AM 21.3833 -62.6333 350° North 460 529 34,000  Level New York Oceanic (ODAPS)
02:28AM 22.0167 -62.7500 349° North 460 529 34,000  Level New York Oceanic (ODAPS)
02:37AM 23.2333 -63.0000 350° North 462 532 34,000  Level New York Oceanic (ODAPS)
02:39AM 23.5000 -63.0500 349° North 464 534 34,000  Level New York Oceanic (ODAPS)
02:46AM 24.4500 -63.2500 349° North 465 535 34,000  Level New York Oceanic (ODAPS)
02:56AM 25.6667 -63.5000 349° North 464 534 34,000  Level New York Oceanic (ODAPS)
03:05AM 26.8000 -63.7500 349° North 468 539 34,000  Level New York Oceanic (ODAPS)
03:06AM 26.9000 -63.7667 349° North 467 537 34,000  Level New York Oceanic (ODAPS)
03:15AM 28.1167 -64.0333 349° North 468 539 34,000  Level New York Oceanic (ODAPS)
03:26AM 29.4525 -64.3528 341° North 489 563 34,000  Level New York Center
03:27AM 29.6176 -64.4176 341° North 468 539 34,000  Level FlightAware Transoceanic
03:27AM 29.5731 -64.3967 342° North 483 556 34,000  Level New York Center
03:28AM 29.7430 -64.4683 341° North 468 539 34,000  Level FlightAware Transoceanic
03:28AM 29.6842 -64.4483 338° Northwest 471 542 34,000  Level New York Center
03:29AM 29.8684 -64.5191 341° North 468 539 34,000  Level FlightAware Transoceanic
03:30AM 29.9938 -64.5700 341° North 468 539 34,000  Level FlightAware Transoceanic
03:31AM 30.1191 -64.6211 341° North 468 539 34,000 420 Level FlightAware Transoceanic
03:34AM 30.4759 -64.5155 14° North 480 552 36,000 480 Climbing FlightAware ADS-B
03:34AM 30.5540 -64.4928 14° North 481 554 36,000  Level FlightAware ADS-B
03:35AM 30.6168 -64.4755 12° North 479 551 36,000  Level FlightAware ADS-B
03:36AM 30.7240 -64.4544 North 475 547 36,000  Level FlightAware ADS-B
03:37AM 30.8333 -64.4191 17° North 487 560 36,000  Level FlightAware ADS-B
03:37AM 30.9389 -64.3934 North 472 543 36,000  Level FlightAware ADS-B
03:38AM 31.0376 -64.3863 North 462 532 36,000  Level FlightAware ADS-B
03:38AM 31.0816 -64.3874 359° North 461 531 36,000  Level FlightAware ADS-B
03:39AM 31.1729 -64.3962 351° North 451 519 36,000  Level FlightAware ADS-B
03:40AM 31.2184 -64.4049 351° North 452 520 36,000  Level FlightAware ADS-B
03:40AM 31.2598 -64.4125 352° North 453 521 36,000  Level FlightAware ADS-B
03:40AM 31.3185 -64.4231 352° North 453 521 36,000  Level FlightAware ADS-B
03:41AM 31.4179 -64.4413 352° North 455 524 36,000  Level FlightAware ADS-B
03:42AM 31.4633 -64.4497 351° North 457 526 36,000  Level FlightAware ADS-B
03:42AM 31.5478 -64.4652 351° North 458 527 36,000  Level FlightAware ADS-B
03:43AM 31.5902 -64.4733 351° North 458 527 36,000  Level FlightAware ADS-B
03:43AM 31.6789 -64.4954 348° North 456 525 36,000  Level FlightAware ADS-B
03:44AM 31.7346 -64.5098 348° North 458 527 36,000  Level FlightAware ADS-B
03:44AM 31.8329 -64.5355 348° North 460 529 36,000  Level FlightAware ADS-B
03:45AM 31.9293 -64.5651 345° North 461 531 36,000  Level FlightAware ADS-B
03:46AM 32.0414 -64.6061 343° North 460 529 36,000  Level FlightAware ADS-B
03:47AM 32.1176 -64.6343 342° North 458 527 36,000  Level FlightAware ADS-B
03:48AM 32.2085 -64.6739 340° North 455 524 36,000  Level FlightAware ADS-B
03:48AM 32.2674 -64.6994 341° North 454 522 36,000  Level FlightAware ADS-B
03:49AM 32.3189 -64.7223 338° Northwest 447 514 36,000  Level FlightAware ADS-B
03:49AM 32.3866 -64.7581 336° Northwest 446 513 36,000  Level FlightAware ADS-B
03:50AM 32.4366 -64.7846 336° Northwest 446 513 36,000  Level FlightAware ADS-B
03:50AM 32.5129 -64.8251 336° Northwest 446 513 36,000  Level FlightAware ADS-B
03:51AM 32.5675 -64.8539 336° Northwest 444 511 36,000  Level FlightAware ADS-B
03:51AM 32.6251 -64.8846 336° Northwest 446 513 36,000  Level FlightAware ADS-B
03:52AM 32.6762 -64.9119 336° Northwest 447 514 36,000  Level FlightAware ADS-B
03:52AM 32.7246 -64.9377 336° Northwest 448 516 36,000  Level FlightAware ADS-B
03:53AM 32.7927 -64.9740 336° Northwest 448 516 36,000  Level FlightAware ADS-B
03:53AM 32.8568 -65.0080 336° Northwest 449 517 36,000  Level FlightAware ADS-B
03:54AM 32.9056 -65.0339 336° Northwest 450 518 36,000  Level FlightAware ADS-B
03:54AM 32.9530 -65.0590 337° Northwest 450 518 36,000  Level FlightAware ADS-B
03:55AM 33.0249 -65.0968 336° Northwest 452 520 36,000  Level FlightAware ADS-B
03:55AM 33.0695 -65.1204 337° Northwest 453 521 36,000  Level FlightAware ADS-B
03:56AM 33.1243 -65.1493 337° Northwest 453 521 36,000  Level FlightAware ADS-B
03:56AM 33.1846 -65.1810 337° Northwest 454 522 36,000  Level FlightAware ADS-B
03:57AM 33.2511 -65.2124 340° North 461 531 36,000  Level FlightAware ADS-B
03:57AM 33.3114 -65.2398 340° North 463 533 36,000  Level FlightAware ADS-B
03:59AM 33.4869 -65.2558 340° North 487 560 36,000  Level New York Center
04:00AM 33.6267 -65.2117 15° North 500 575 36,000  Level New York Center
04:01AM 33.7489 -65.1911 North 498 573 36,000  Level New York Center
04:02AM 33.8864 -65.2367 345° North 487 560 36,000  Level New York Center
04:03AM 34.0139 -65.2858 342° North 467 537 36,000  Level New York Center
04:04AM 34.1222 -65.3286 342° North 473 544 36,000  Level New York Center
04:05AM 34.2544 -65.3903 339° North 461 531 36,000  Level New York Center
04:06AM 34.3656 -65.4483 337° Northwest 467 537 36,000  Level New York Center
04:07AM 34.4836 -65.5289 331° Northwest 458 527 36,000  Level New York Center
04:08AM 34.5697 -65.6367 314° West 442 509 36,000  Level New York Center
04:09AM 34.6444 -65.7256 316° Northwest 429 494 36,000  Level New York Center
04:10AM 34.7289 -65.8464 310° West 429 494 36,000  Level New York Center
04:11AM 34.7819 -65.9697 298° West 421 484 36,000  Level New York Center
04:12AM 34.8283 -66.0858 296° West 413 475 36,000  Level New York Center
04:13AM 34.8939 -66.2186 301° West 424 488 36,000  Level New York Center
04:14AM 34.9606 -66.3264 307° West 423 487 36,000  Level New York Center
04:15AM 35.0111 -66.4531 296° West 428 493 36,000  Level New York Center
04:16AM 35.0864 -66.5733 307° West 417 480 36,000  Level New York Center
04:17AM 35.1442 -66.6819 303° West 423 487 36,000  Level New York Center
04:18AM 35.2133 -66.8158 302° West 423 487 36,000  Level New York Center
04:19AM 35.2839 -66.9292 307° West 425 489 36,000  Level New York Center
04:20AM 35.3375 -67.0386 301° West 425 489 36,000  Level New York Center
04:21AM 35.4264 -67.1467 315° West 420 483 36,000  Level New York Center
04:22AM 35.4969 -67.2814 303° West 439 505 36,000  Level New York Center
04:23AM 35.5989 -67.3381 336° Northwest 447 514 36,000  Level New York Center
04:24AM 35.7122 -67.4331 326° Northwest 447 514 36,000  Level New York Center
04:25AM 35.8106 -67.5211 324° Northwest 447 514 36,000  Level New York Center
04:26AM 35.9069 -67.6119 323° Northwest 447 514 36,000  Level New York Center
04:26AM 35.9500 -67.6833 322° Northwest 446 513 36,000  Level New York Oceanic (ODAPS)
04:28AM 36.0608 -67.7600 322° Northwest 447 514 36,000  Level New York Center
04:30AM 36.1667 -67.9000 322° Northwest 447 514 36,000  Level New York Oceanic (ODAPS)
04:33AM 36.5667 -68.2833 322° Northwest 445 512 36,000  Level New York Oceanic (ODAPS)
04:38AM 37.1167 -68.8167 321° Northwest 441 507 36,000  Level New York Oceanic (ODAPS)
04:40AM 37.2667 -68.9667 321° Northwest 444 511 36,000  Level New York Oceanic (ODAPS)
04:45AM 37.7981 -69.5000 321° Northwest 480 552 36,000  Level New York Center
04:46AM 37.8889 -69.6092 317° Northwest 466 536 36,000  Level New York Center
04:47AM 37.9878 -69.7053 323° Northwest 455 524 36,000  Level New York Center
04:48AM 38.0783 -69.8094 318° Northwest 444 511 36,000  Level New York Center
04:49AM 38.1542 -69.9194 311° West 427 491 36,000  Level New York Center
04:50AM 38.2322 -70.0350 311° West 427 491 36,000  Level New York Center
04:51AM 38.3097 -70.1481 311° West 427 491 36,000  Level New York Center
04:52AM 38.3897 -70.2694 310° West 432 497 36,000  Level New York Center
04:53AM 38.4692 -70.3803 312° West 432 497 36,000  Level New York Center
04:54AM 38.5447 -70.4967 310° West 432 497 36,000  Level New York Center
04:55AM 38.6239 -70.6133 311° West 432 497 36,000  Level New York Center
04:56AM 38.7011 -70.7250 312° West 425 489 36,000  Level New York Center
04:57AM 38.7761 -70.8394 310° West 430 495 36,000  Level New York Center
04:58AM 38.8531 -70.9569 310° West 430 495 36,000  Level New York Center
04:59AM 38.9322 -71.0800 310° West 430 495 36,000  Level New York Center
05:00AM 39.0067 -71.1953 310° West 430 495 36,000  Level New York Center
05:01AM 39.0875 -71.3108 312° West 425 489 36,000 -480 Level New York Center
05:02AM 39.1619 -71.4347 308° West 425 489 35,100 -960 Descending New York Center
05:03AM 39.2383 -71.5506 310° West 431 496 34,100 -1,320 Descending New York Center
05:06AM 39.4596 -71.8926 310° West 385 443 30,000 -1,620 Descending FlightAware ADS-B (KWWD)
05:09AM 39.6712 -72.2234 308° West 339 390 24,200 -1,800 Descending FlightAware ADS-B (KWWD)
05:10AM 39.7136 -72.2896 308° West 339 390 23,000 -1,680 Descending FlightAware ADS-B (KWWD)
05:11AM 39.7940 -72.4167 309° West 322 371 20,700 -1,740 Descending FlightAware ADS-B (KSNC)
05:12AM 39.8222 -72.4614 309° West 317 365 19,800 -1,680 Descending FlightAware ADS-B (KSNC)
05:12AM 39.8580 -72.5178 309° West 311 358 18,800 -1,560 Descending FlightAware ADS-B (KSNC)
05:14AM 39.9060 -72.5941 309° West 295 339 17,000 -1,560 Descending FlightAware ADS-B (KSNC)
05:14AM 39.9554 -72.6727 309° West 286 329 15,900 -1,680 Descending FlightAware ADS-B (KSNC)
05:15AM 39.9798 -72.7117 309° West 279 321 15,100 -1,620 Descending FlightAware ADS-B (KSNC)
05:15AM 40.0042 -72.7510 309° West 272 313 14,300 -1,620 Descending FlightAware ADS-B (KSNC)
05:16AM 40.0282 -72.7886 309° West 270 311 13,500 -1,320 Descending FlightAware ADS-B (KSNC)
05:17AM 40.0589 -72.8378 309° West 259 298 12,800 -1,320 Descending FlightAware ADS-B (KSNC)
05:17AM 40.0822 -72.8755 308° West 257 296 12,000 -1,320 Descending FlightAware ADS-B (KSNC)
05:18AM 40.1089 -72.9184 309° West 240 276 11,300 -1,320 Descending FlightAware ADS-B (KSNC)
05:18AM 40.1291 -72.9507 309° West 233 268 10,500 -1,680 Descending FlightAware ADS-B (KSNC)
05:18AM 40.1444 -72.9747 312° West 233 268 9,900 -1,620 Descending FlightAware ADS-B (KSNC)
05:19AM 40.1857 -73.0328 312° West 222 255 8,500 -1,560 Descending FlightAware ADS-B (KSNC)
05:20AM 40.1998 -73.0534 312° West 220 253 7,900 -1,560 Descending FlightAware ADS-B (KSNC)
05:20AM 40.2221 -73.0857 312° West 219 252 7,100 -1,140 Descending FlightAware ADS-B (KSNC)
05:21AM 40.2324 -73.1005 312° West 220 253 7,000 -1,080 Descending FlightAware ADS-B (KSNC)
05:21AM 40.2457 -73.1200 312° West 221 254 6,500 -1,680 Descending FlightAware ADS-B (KSNC)
05:22AM 40.2701 -73.1554 312° West 225 259 5,500 -1,560 Descending FlightAware ADS-B (KSNC)
05:22AM 40.2786 -73.1678 312° West 225 259 5,200 -1,320 Descending FlightAware ADS-B (KSNC)
05:22AM 40.3022 -73.2023 312° West 224 258 4,500 -1,260 Descending FlightAware ADS-B (KSNC)
05:23AM 40.3270 -73.2381 312° West 220 253 3,800 -960 Descending FlightAware ADS-B (KSNC)
05:24AM 40.3722 -73.2936 312° West 224 258 3,000 -420 Descending New York Center
05:25AM 40.4175 -73.3225 334° Northwest 208 239 3,000 -60 Level New York Center
05:26AM 40.4625 -73.3653 324° Northwest 194 223 2,900 -540 Descending New York Center
05:27AM 40.4864 -73.4153 302° West 175 201 2,000 -480 Descending New York Center
05:28AM 40.5142 -73.4764 301° West 175 201 2,000  Level New York Center
05:29AM 40.5358 -73.5264 300° West 175 201 2,000  Level New York Center
05:30AM 40.5667 -73.6000 299° West 157 181 2,000  Level New York TRACON
05:31AM 40.5833 -73.6333 303° West 146 168 2,000 -300 Level New York TRACON
05:32AM 40.6167 -73.6833 311° West 131 151 1,500 -600 Descending New York TRACON
05:33AM 40.6333 -73.7167 303° West 126 145 800 -720 Descending New York TRACON